Flugplatz Herrenteich

Für EDEH sind keine METAR/TAF Berichte vorhanden.
Es werden die Flugwettermeldungen vom Flugplatz Mannheim-City in 14 km Entfernung angezeigt.

Bericht für EDFM

vom 15.07. um 16:20 UTC

variable Windrichtung mit 3 kt

Sichtweite 10 km oder mehr

aufgebrochene Bewölkung in 4800 ft

Temperatur 21.0°C

Taupunkt 12.0°C

Luftfeuchtigkeit 56%

Luftdruck 1014 hPa

EDFM 151620Z VRB03KT 9999 BKN048 21/12 Q1014

Prognose für EDFM

vom 15.07. um 14:00 UTC

Zwischen 15:00 UTC und 21:00 UTC

variable Windrichtung mit 3 kt

Sichtweite 10 km oder mehr

aufgelockert bewölkt in 2000 ft

TAF EDFM 151400Z 1515/1521 VRB03KT 9999 SCT020
Impressum